Time;durP1;ratioP1;P1;durP2;ratioP2;P2;SDS_P1;SDS_P2;PMS_P1;PMS_P2;Temp;Humidity;BMP_temperature;BMP_pressure;BME280_temperature;BME280_humidity;BME280_pressure;Samples;Min_cycle;Max_cycle;Signal;HPM_P1;HPM_P2
2022/01/20 00:02:22;;;;;;;34.20;19.40;;;;;;;;;;6185019;23;19997;-76
2022/01/20 00:05:04;;;;;;;46.20;26.30;;;;;;;;;;6184693;23;20448;-75
2022/01/20 00:07:43;;;;;;;47.30;26.55;;;;;;;;;;6157990;23;20054;-76
2022/01/20 00:26:25;;;;;;;22.42;12.80;;;;;;;;;;6194745;23;20017;-76
2022/01/20 00:28:55;;;;;;;21.55;14.27;;;;;;;;;;6184927;23;20428;-75
2022/01/20 00:34:14;;;;;;;;;;;;;;;;;;6184999;23;20020;-76
2022/01/20 00:39:26;;;;;;;57.20;32.15;;;;;;;;;;6182226;23;20012;-76
2022/01/20 00:41:52;;;;;;;41.58;23.30;;;;;;;;;;6181814;23;20098;-76
2022/01/20 00:44:18;;;;;;;48.35;34.75;;;;;;;;;;6182060;23;20045;-76
2022/01/20 00:46:46;;;;;;;44.50;25.92;;;;;;;;;;6182000;23;20032;-76
2022/01/20 00:49:13;;;;;;;43.05;25.88;;;;;;;;;;6182022;23;20005;-76
2022/01/20 00:51:39;;;;;;;41.20;23.38;;;;;;;;;;6181712;23;20012;-77
2022/01/20 00:54:05;;;;;;;37.17;22.05;;;;;;;;;;6182359;23;20016;-76
2022/01/20 00:56:31;;;;;;;35.28;20.83;;;;;;;;;;6181829;23;20029;-76
2022/01/20 00:58:57;;;;;;;33.35;20.42;;;;;;;;;;6182161;23;20009;-76
2022/01/20 01:01:42;;;;;;;31.10;18.90;;;;;;;;;;6182745;23;20325;-77
2022/01/20 01:04:08;;;;;;;34.03;19.75;;;;;;;;;;6183773;23;20002;-76
2022/01/20 01:09:12;;;;;;;32.92;19.25;;;;;;;;;;6193829;23;20020;-76
2022/01/20 01:11:40;;;;;;;34.00;19.77;;;;;;;;;;6184023;23;20012;-76
2022/01/20 01:14:06;;;;;;;28.38;17.20;;;;;;;;;;6184133;23;20040;-76
2022/01/20 01:19:48;;;;;;;28.08;16.42;;;;;;;;;;6184537;23;20009;-76
2022/01/20 01:22:21;;;;;;;32.88;19.33;;;;;;;;;;6184486;23;20016;-77
2022/01/20 01:24:49;;;;;;;39.80;21.63;;;;;;;;;;6184459;23;20037;-77
2022/01/20 01:27:16;;;;;;;34.35;18.65;;;;;;;;;;6184288;23;20124;-76
2022/01/20 01:33:09;;;;;;;39.88;22.77;;;;;;;;;;6193492;23;20340;-75
2022/01/20 01:35:18;;;;;;;39.72;24.15;;;;;;;;;;6173507;23;20013;-76
2022/01/20 01:40:29;;;;;;;38.03;21.60;;;;;;;;;;6183962;23;20076;-76
2022/01/20 01:42:56;;;;;;;32.13;19.85;;;;;;;;;;6183879;23;20076;-76
2022/01/20 01:45:28;;;;;;;35.42;19.73;;;;;;;;;;6184105;23;20027;-77
2022/01/20 01:47:55;;;;;;;39.17;23.17;;;;;;;;;;6184159;23;20008;-77
2022/01/20 01:50:21;;;;;;;28.38;18.75;;;;;;;;;;6183995;23;20056;-77
2022/01/20 01:52:47;;;;;;;40.22;21.77;;;;;;;;;;6157652;23;20443;-76
2022/01/20 01:55:14;;;;;;;36.65;21.35;;;;;;;;;;6183921;23;20096;-76
2022/01/20 01:57:40;;;;;;;36.33;20.35;;;;;;;;;;6183605;23;20005;-76
2022/01/20 02:00:07;;;;;;;42.97;22.92;;;;;;;;;;6184271;23;20377;-76
2022/01/20 02:02:34;;;;;;;38.85;21.30;;;;;;;;;;6183604;23;20333;-76
2022/01/20 02:05:03;;;;;;;30.15;17.92;;;;;;;;;;6183642;23;20012;-77
2022/01/20 02:18:50;;;;;;;32.42;18.77;;;;;;;;;;6183899;23;20032;-77
2022/01/20 02:21:19;;;;;;;37.92;20.85;;;;;;;;;;6158589;23;20001;-77
2022/01/20 02:23:50;;;;;;;35.72;21.38;;;;;;;;;;6185885;23;20063;-76
2022/01/20 02:26:16;;;;;;;40.22;21.27;;;;;;;;;;6185775;23;19997;-75
2022/01/20 02:28:44;;;;;;;31.85;18.15;;;;;;;;;;6185727;23;20001;-76
2022/01/20 02:31:10;;;;;;;24.77;15.20;;;;;;;;;;6185607;23;20064;-77
2022/01/20 02:33:36;;;;;;;28.17;14.07;;;;;;;;;;6185414;23;20001;-76
2022/01/20 02:36:08;;;;;;;27.33;14.95;;;;;;;;;;6185615;23;20455;-76
2022/01/20 02:38:46;;;;;;;27.60;15.70;;;;;;;;;;6159220;23;20005;-76
2022/01/20 02:46:41;;;;;;;;;;;;;;;;;;6186175;23;20072;-76
2022/01/20 02:49:08;;;;;;;28.35;16.25;;;;;;;;;;6185657;23;19908;-77
2022/01/20 02:51:35;;;;;;;31.65;18.15;;;;;;;;;;6159247;23;20328;-77
2022/01/20 02:54:03;;;;;;;29.10;17.52;;;;;;;;;;6185544;23;20075;-76
2022/01/20 02:56:29;;;;;;;29.70;16.15;;;;;;;;;;6185819;23;20413;-77
2022/01/20 02:58:55;;;;;;;34.72;18.48;;;;;;;;;;6185175;23;20421;-77
2022/01/20 03:01:22;;;;;;;27.60;16.35;;;;;;;;;;6185627;23;20005;-77
2022/01/20 03:03:48;;;;;;;26.00;15.13;;;;;;;;;;6184793;23;20005;-76
2022/01/20 03:06:17;;;;;;;93.63;44.88;;;;;;;;;;6185408;23;20008;-76
2022/01/20 03:08:43;;;;;;;55.15;30.15;;;;;;;;;;6185206;23;20004;-77
2022/01/20 03:11:09;;;;;;;52.65;30.33;;;;;;;;;;6185145;23;20017;-76
2022/01/20 03:13:35;;;;;;;44.70;25.83;;;;;;;;;;6185270;23;20063;-78
2022/01/20 03:16:04;;;;;;;50.17;27.73;;;;;;;;;;6184974;23;20064;-78
2022/01/20 03:18:30;;;;;;;46.53;26.92;;;;;;;;;;6184905;23;20381;-77
2022/01/20 03:20:56;;;;;;;38.17;22.35;;;;;;;;;;6184818;23;19997;-77
2022/01/20 03:23:24;;;;;;;36.10;20.05;;;;;;;;;;6158760;23;20005;-78
2022/01/20 03:25:58;;;;;;;30.52;18.08;;;;;;;;;;6184645;23;20004;-77
2022/01/20 03:28:29;;;;;;;28.95;17.35;;;;;;;;;;6185037;23;19993;-77
2022/01/20 03:30:55;;;;;;;25.73;14.95;;;;;;;;;;6184537;23;19994;-77
2022/01/20 03:33:28;;;;;;;30.00;15.02;;;;;;;;;;6185453;23;20020;-78
2022/01/20 03:35:54;;;;;;;30.70;15.93;;;;;;;;;;6185325;23;20001;-77
2022/01/20 03:38:23;;;;;;;27.23;16.40;;;;;;;;;;6185158;23;20467;-75
2022/01/20 03:40:59;;;;;;;22.55;14.57;;;;;;;;;;6167784;23;20025;-76
2022/01/20 03:43:25;;;;;;;23.30;13.65;;;;;;;;;;6154815;23;20001;-77
2022/01/20 03:45:55;;;;;;;21.27;12.27;;;;;;;;;;6155585;23;20008;-76
2022/01/20 03:48:24;;;;;;;26.95;16.00;;;;;;;;;;6155248;23;20456;-76
2022/01/20 03:50:59;;;;;;;26.08;16.48;;;;;;;;;;6155219;23;20009;-76
2022/01/20 03:53:26;;;;;;;31.95;19.02;;;;;;;;;;6154943;23;20010;-77
2022/01/20 03:55:52;;;;;;;22.65;14.52;;;;;;;;;;6155412;23;20001;-77
2022/01/20 03:58:37;;;;;;;21.23;12.75;;;;;;;;;;6154670;23;19998;-77
2022/01/20 04:01:03;;;;;;;;;;;;;;;;;;6155281;23;20005;-77
2022/01/20 04:03:38;;;;;;;23.58;14.68;;;;;;;;;;6155141;23;19908;-77
2022/01/20 04:06:04;;;;;;;24.17;13.15;;;;;;;;;;6154747;23;20001;-77
2022/01/20 04:08:35;;;;;;;38.97;19.52;;;;;;;;;;6155228;23;20002;-77
2022/01/20 04:11:11;;;;;;;40.63;21.73;;;;;;;;;;6154734;23;20001;-77
2022/01/20 04:13:39;;;;;;;31.23;17.02;;;;;;;;;;6155053;23;20009;-77
2022/01/20 04:16:17;;;;;;;27.40;13.48;;;;;;;;;;6154705;23;20009;-77
2022/01/20 04:18:56;;;;;;;22.35;13.77;;;;;;;;;;6154583;23;20330;-76
2022/01/20 04:21:29;;;;;;;22.20;13.15;;;;;;;;;;6154786;23;20005;-77
2022/01/20 04:23:56;;;;;;;32.72;17.67;;;;;;;;;;6155059;23;20013;-77
2022/01/20 04:26:23;;;;;;;26.75;15.60;;;;;;;;;;6154521;23;20001;-77
2022/01/20 04:28:53;;;;;;;26.92;16.25;;;;;;;;;;6155170;23;19998;-77
2022/01/20 04:31:22;;;;;;;32.17;17.67;;;;;;;;;;6154897;23;20006;-77
2022/01/20 04:33:50;;;;;;;32.92;17.70;;;;;;;;;;6154689;23;20382;-77
2022/01/20 04:36:17;;;;;;;35.30;17.60;;;;;;;;;;6128530;23;20088;-78
2022/01/20 04:38:43;;;;;;;34.63;17.17;;;;;;;;;;6154328;23;20060;-77
2022/01/20 04:41:12;;;;;;;25.27;15.65;;;;;;;;;;6154687;23;20088;-77
2022/01/20 04:43:41;;;;;;;20.77;13.35;;;;;;;;;;6128364;23;20037;-78
2022/01/20 04:59:31;;;;;;;27.00;13.68;;;;;;;;;;6154215;23;20015;-77
2022/01/20 05:01:58;;;;;;;31.58;16.88;;;;;;;;;;6154570;23;19997;-77
2022/01/20 05:04:26;;;;;;;35.17;22.83;;;;;;;;;;6154109;23;20374;-77
2022/01/20 05:06:56;;;;;;;39.30;23.92;;;;;;;;;;6154582;23;20032;-78
2022/01/20 05:09:22;;;;;;;56.20;30.75;;;;;;;;;;6154388;23;20001;-77
2022/01/20 05:11:58;;;;;;;62.85;32.47;;;;;;;;;;6154831;23;20012;-76
2022/01/20 05:14:24;;;;;;;55.20;30.20;;;;;;;;;;6153936;23;20064;-78
2022/01/20 05:16:55;;;;;;;76.22;39.70;;;;;;;;;;6154373;23;20464;-77
2022/01/20 05:19:22;;;;;;;97.78;51.40;;;;;;;;;;6154145;23;20005;-77
2022/01/20 05:21:50;;;;;;;83.15;43.60;;;;;;;;;;6154872;23;20030;-77
2022/01/20 05:24:16;;;;;;;85.13;42.83;;;;;;;;;;6154508;23;20001;-78
2022/01/20 05:26:42;;;;;;;65.32;35.97;;;;;;;;;;6154119;23;20005;-78
2022/01/20 05:29:09;;;;;;;67.28;38.35;;;;;;;;;;6154280;23;20009;-78
2022/01/20 05:31:35;;;;;;;54.67;31.00;;;;;;;;;;6154557;23;20473;-78
2022/01/20 05:34:06;;;;;;;74.22;38.95;;;;;;;;;;6154548;23;20102;-78
2022/01/20 05:36:32;;;;;;;63.92;33.45;;;;;;;;;;6154648;23;20144;-77
2022/01/20 05:38:58;;;;;;;54.03;30.70;;;;;;;;;;6154529;23;20422;-77
2022/01/20 05:41:24;;;;;;;98.00;45.35;;;;;;;;;;6154013;23;20017;-78
2022/01/20 05:43:51;;;;;;;80.07;39.35;;;;;;;;;;6154182;23;20001;-78
2022/01/20 05:46:24;;;;;;;48.22;28.02;;;;;;;;;;6128082;23;20002;-78
2022/01/20 05:49:08;;;;;;;51.10;28.00;;;;;;;;;;6154562;23;20329;-77
2022/01/20 05:51:42;;;;;;;117.60;51.43;;;;;;;;;;6154477;23;19998;-78
2022/01/20 05:54:32;;;;;;;131.90;56.25;;;;;;;;;;6154805;23;19998;-77
2022/01/20 06:00:07;;;;;;;58.67;32.45;;;;;;;;;;6124716;23;20009;-77
2022/01/20 06:05:21;;;;;;;63.63;33.60;;;;;;;;;;6156173;23;20088;-76
2022/01/20 06:07:47;;;;;;;34.47;19.95;;;;;;;;;;6130003;23;20006;-77
2022/01/20 06:10:13;;;;;;;37.80;21.95;;;;;;;;;;6156201;23;20048;-77
2022/01/20 06:12:41;;;;;;;31.55;17.40;;;;;;;;;;6155868;23;20002;-77
2022/01/20 06:15:10;;;;;;;33.90;18.52;;;;;;;;;;6155787;23;20060;-77
2022/01/20 06:17:37;;;;;;;45.70;23.80;;;;;;;;;;6156313;23;20303;-78
2022/01/20 06:20:04;;;;;;;53.22;30.20;;;;;;;;;;6155706;23;20005;-78
2022/01/20 06:22:30;;;;;;;55.15;34.17;;;;;;;;;;6153848;23;20009;-77
2022/01/20 06:25:08;;;;;;;120.93;73.15;;;;;;;;;;6156049;23;20083;-78
2022/01/20 06:27:37;;;;;;;84.82;49.65;;;;;;;;;;6125076;23;20009;-78
2022/01/20 06:30:06;;;;;;;57.10;34.78;;;;;;;;;;6153196;23;20001;-78
2022/01/20 06:32:32;;;;;;;93.70;51.60;;;;;;;;;;6153562;23;20044;-78
2022/01/20 06:34:59;;;;;;;121.30;72.50;;;;;;;;;;6154863;23;20013;-79
2022/01/20 06:37:25;;;;;;;196.27;112.55;;;;;;;;;;6154011;23;20002;-78
2022/01/20 06:39:51;;;;;;;163.90;90.72;;;;;;;;;;6158578;23;20052;-77
2022/01/20 06:42:19;;;;;;;156.60;88.18;;;;;;;;;;6157631;23;20060;-78
2022/01/20 06:44:53;;;;;;;153.07;84.57;;;;;;;;;;6158290;23;20001;-77
2022/01/20 06:47:20;;;;;;;94.28;54.70;;;;;;;;;;6183879;23;20080;-77
2022/01/20 06:49:47;;;;;;;82.78;46.83;;;;;;;;;;6184286;23;20009;-77
2022/01/20 06:52:13;;;;;;;69.85;39.78;;;;;;;;;;6157296;23;20060;-78
2022/01/20 06:54:42;;;;;;;81.22;44.33;;;;;;;;;;6183212;23;19999;-77
2022/01/20 06:57:17;;;;;;;79.50;45.92;;;;;;;;;;6183906;23;20542;-78
2022/01/20 06:59:46;;;;;;;103.05;56.60;;;;;;;;;;6184245;23;20001;-77
2022/01/20 07:02:12;;;;;;;86.85;49.38;;;;;;;;;;6184157;23;20036;-77
2022/01/20 07:04:59;;;;;;;95.28;52.13;;;;;;;;;;6183576;23;20001;-78
2022/01/20 07:07:37;;;;;;;;;;;;;;;;;;;;;
2022/01/20 07:10:04;;;;;;;77.20;41.47;;;;;;;;;;6184484;23;20127;-78
2022/01/20 07:12:31;;;;;;;83.93;48.60;;;;;;;;;;6183684;23;20024;-79
2022/01/20 07:14:57;;;;;;;79.10;43.63;;;;;;;;;;6184144;23;20318;-76
2022/01/20 07:17:23;;;;;;;86.80;49.30;;;;;;;;;;6184291;23;19997;-80
2022/01/20 07:19:52;;;;;;;66.55;40.50;;;;;;;;;;6183832;23;20001;-78
2022/01/20 07:22:18;;;;;;;105.32;62.00;;;;;;;;;;6157564;23;20084;-79
2022/01/20 07:24:44;;;;;;;94.40;52.92;;;;;;;;;;6184066;23;20055;-78
2022/01/20 07:27:10;;;;;;;77.82;48.00;;;;;;;;;;6183422;23;20005;-77
2022/01/20 07:29:36;;;;;;;78.78;47.92;;;;;;;;;;6183653;23;20001;-79
2022/01/20 07:32:03;;;;;;;79.35;44.20;;;;;;;;;;6184390;23;20001;-77
2022/01/20 07:34:48;;;;;;;86.13;49.95;;;;;;;;;;6182724;23;20005;-78
2022/01/20 07:37:14;;;;;;;109.13;61.53;;;;;;;;;;6183864;23;20433;-77
2022/01/20 07:39:41;;;;;;;60.25;38.30;;;;;;;;;;6183235;23;20463;-76
2022/01/20 07:44:55;;;;;;;79.25;45.17;;;;;;;;;;6184004;23;20082;-77
2022/01/20 07:47:21;;;;;;;93.75;58.45;;;;;;;;;;6183082;23;20009;-78
2022/01/20 07:49:50;;;;;;;113.40;66.18;;;;;;;;;;6183403;23;20036;-77
2022/01/20 07:52:16;;;;;;;89.47;53.78;;;;;;;;;;6183750;23;20337;-78
2022/01/20 07:54:44;;;;;;;106.05;62.83;;;;;;;;;;6183169;23;20008;-79
2022/01/20 07:57:10;;;;;;;87.25;54.65;;;;;;;;;;6183276;23;20009;-77
2022/01/20 07:59:44;;;;;;;129.68;73.97;;;;;;;;;;6183368;23;20001;-78
2022/01/20 08:02:12;;;;;;;75.05;48.05;;;;;;;;;;6182455;23;20012;-78
2022/01/20 08:04:39;;;;;;;65.18;41.55;;;;;;;;;;6183066;23;20001;-78
2022/01/20 08:07:05;;;;;;;93.88;53.15;;;;;;;;;;6184101;23;20345;-77
2022/01/20 08:09:31;;;;;;;76.28;45.15;;;;;;;;;;6183601;23;20012;-77
2022/01/20 08:11:57;;;;;;;67.13;44.80;;;;;;;;;;6183651;23;20004;-78
2022/01/20 08:14:25;;;;;;;69.22;44.50;;;;;;;;;;6183667;23;20119;-78
2022/01/20 08:17:03;;;;;;;74.15;44.55;;;;;;;;;;6182923;23;20013;-77
2022/01/20 08:19:39;;;;;;;;;;;;;;;;;;;;;
2022/01/20 08:25:18;;;;;;;75.93;48.53;;;;;;;;;;6140361;23;20013;-79
2022/01/20 08:27:47;;;;;;;82.97;49.90;;;;;;;;;;6182941;23;20004;-78
2022/01/20 08:30:38;;;;;;;103.65;62.22;;;;;;;;;;6183350;23;20051;-78
2022/01/20 08:33:39;;;;;;;103.25;63.42;;;;;;;;;;6182952;23;20084;-78
2022/01/20 08:36:33;;;;;;;113.80;68.97;;;;;;;;;;6183656;23;20400;-78
2022/01/20 08:41:59;;;;;;;81.10;50.72;;;;;;;;;;6182582;23;20028;-77
2022/01/20 08:44:25;;;;;;;77.47;47.15;;;;;;;;;;6183214;23;20047;-77
2022/01/20 08:46:56;;;;;;;68.35;44.92;;;;;;;;;;6182957;23;20028;-78
2022/01/20 08:49:40;;;;;;;;;;;;;;;;;;;;;
2022/01/20 08:52:16;;;;;;;100.10;60.30;;;;;;;;;;6137374;23;20080;-78
2022/01/20 08:54:55;;;;;;;;;;;;;;;;;;;;;
2022/01/20 08:57:40;;;;;;;65.60;43.45;;;;;;;;;;6180220;23;20080;-77
2022/01/20 09:00:27;;;;;;;59.72;38.35;;;;;;;;;;6182712;23;20001;-78
2022/01/20 09:02:55;;;;;;;63.38;40.67;;;;;;;;;;6182488;23;19998;-77
2022/01/20 09:05:24;;;;;;;51.45;34.90;;;;;;;;;;6182961;23;20424;-77
2022/01/20 09:08:00;;;;;;;52.67;34.67;;;;;;;;;;6182408;23;20317;-78
2022/01/20 09:10:54;;;;;;;54.65;35.38;;;;;;;;;;6156741;23;20005;-78
2022/01/20 09:16:38;;;;;;;;;;;;;;;;;;;;;
2022/01/20 09:19:33;;;;;;;47.47;31.73;;;;;;;;;;6179023;23;20095;-79
2022/01/20 09:22:17;;;;;;;;;;;;;;;;;;6182391;23;20342;-78
2022/01/20 09:25:05;;;;;;;44.05;27.63;;;;;;;;;;6181113;23;20343;-78
2022/01/20 09:28:00;;;;;;;42.47;25.08;;;;;;;;;;6182443;23;20044;-79
2022/01/20 09:30:21;;;;;;;39.15;24.60;;;;;;;;;;6179545;23;20009;-69
2022/01/20 09:33:08;;;;;;;34.92;22.55;;;;;;;;;;6158946;23;20032;-80
2022/01/20 09:35:36;;;;;;;32.67;20.80;;;;;;;;;;6184739;23;20372;-79
2022/01/20 09:38:03;;;;;;;34.08;22.27;;;;;;;;;;6184950;23;20557;-72
2022/01/20 09:40:33;;;;;;;30.63;20.63;;;;;;;;;;6184700;23;20080;-79
2022/01/20 09:42:59;;;;;;;30.30;18.63;;;;;;;;;;6184960;23;20021;-79
2022/01/20 09:45:44;;;;;;;28.55;18.13;;;;;;;;;;6184892;23;20080;-80
2022/01/20 09:48:15;;;;;;;26.67;16.50;;;;;;;;;;6185295;23;20398;-78
2022/01/20 09:50:44;;;;;;;29.23;17.65;;;;;;;;;;6185022;23;20023;-78
2022/01/20 09:53:33;;;;;;;26.50;16.90;;;;;;;;;;6158174;23;20017;-77
2022/01/20 09:56:06;;;;;;;32.17;18.90;;;;;;;;;;6183976;23;20083;-78
2022/01/20 09:58:43;;;;;;;34.10;23.08;;;;;;;;;;6184402;23;20000;-79
2022/01/20 10:01:31;;;;;;;35.72;22.13;;;;;;;;;;6184151;23;20222;-80
2022/01/20 10:04:04;;;;;;;29.23;19.50;;;;;;;;;;6183498;23;20005;-81
2022/01/20 10:06:30;;;;;;;22.98;13.65;;;;;;;;;;6184913;23;20004;-77
2022/01/20 10:09:01;;;;;;;18.98;12.02;;;;;;;;;;6184299;23;20005;-80
2022/01/20 10:11:29;;;;;;;14.98;10.75;;;;;;;;;;6184917;23;20104;-77
2022/01/20 10:14:00;;;;;;;22.58;11.85;;;;;;;;;;6183722;23;20048;-79
2022/01/20 10:16:31;;;;;;;22.05;11.13;;;;;;;;;;6184149;23;20009;-78
2022/01/20 10:18:59;;;;;;;16.65;10.88;;;;;;;;;;6184703;23;20005;-79
2022/01/20 10:21:30;;;;;;;18.67;13.10;;;;;;;;;;6184444;23;20016;-78
2022/01/20 10:24:03;;;;;;;20.52;13.75;;;;;;;;;;6184173;23;20009;-79
2022/01/20 10:26:32;;;;;;;18.88;11.63;;;;;;;;;;6157507;23;20012;-79
2022/01/20 10:29:00;;;;;;;23.38;12.75;;;;;;;;;;6184170;23;20055;-77
2022/01/20 10:31:45;;;;;;;16.13;9.85;;;;;;;;;;6183739;23;20055;-79
2022/01/20 10:34:34;;;;;;;14.18;9.35;;;;;;;;;;6157464;23;20007;-79
2022/01/20 10:37:03;;;;;;;15.65;8.30;;;;;;;;;;6184552;23;20340;-79
2022/01/20 10:40:05;;;;;;;17.20;8.50;;;;;;;;;;6183756;23;20085;-79
2022/01/20 10:42:37;;;;;;;16.27;8.70;;;;;;;;;;6153260;23;20108;-78
2022/01/20 10:45:03;;;;;;;;;;;;;;;;;;6155184;23;20457;-78
2022/01/20 10:47:31;;;;;;;21.88;10.35;;;;;;;;;;6155346;23;19900;-78
2022/01/20 10:50:11;;;;;;;23.10;10.40;;;;;;;;;;6152342;23;20052;-79
2022/01/20 10:52:45;;;;;;;137.38;45.60;;;;;;;;;;6153828;23;20002;-79
2022/01/20 10:55:30;;;;;;;103.05;36.42;;;;;;;;;;6152503;23;20009;-78
2022/01/20 10:57:57;;;;;;;29.98;15.32;;;;;;;;;;6154702;23;20509;-78
2022/01/20 11:00:25;;;;;;;69.10;26.35;;;;;;;;;;6154178;23;20511;-78
2022/01/20 11:03:00;;;;;;;64.55;23.67;;;;;;;;;;6154059;23;20445;-79
2022/01/20 11:05:29;;;;;;;48.10;17.48;;;;;;;;;;6154165;23;20032;-79
2022/01/20 11:07:55;;;;;;;15.75;9.07;;;;;;;;;;6154299;23;20076;-77
2022/01/20 11:10:42;;;;;;;14.73;8.13;;;;;;;;;;6154459;23;20041;-78
2022/01/20 11:13:10;;;;;;;15.05;7.25;;;;;;;;;;6154964;23;20033;-78
2022/01/20 11:15:55;;;;;;;;;;;;;;;;;;;;;
2022/01/20 11:18:31;;;;;;;21.08;11.50;;;;;;;;;;6150532;23;20069;-79
2022/01/20 11:21:05;;;;;;;19.52;13.05;;;;;;;;;;6153933;23;20012;-79
2022/01/20 11:23:52;;;;;;;;;;;;;;;;;;;;;
2022/01/20 11:29:33;;;;;;;20.90;11.57;;;;;;;;;;6148597;23;20017;-80
2022/01/20 11:31:53;;;;;;;12.45;8.52;;;;;;;;;;6150779;23;20009;-79
2022/01/20 11:34:35;;;;;;;15.25;9.40;;;;;;;;;;6154064;23;20009;-79
2022/01/20 11:37:27;;;;;;;;;;;;;;;;;;;;;
2022/01/20 11:40:07;;;;;;;16.15;9.23;;;;;;;;;;6153409;23;20097;-80
2022/01/20 11:42:39;;;;;;;14.50;9.60;;;;;;;;;;6153321;23;20424;-79
2022/01/20 11:45:23;;;;;;;15.02;9.52;;;;;;;;;;6154669;23;20028;-80
2022/01/20 11:47:52;;;;;;;12.82;7.78;;;;;;;;;;6154248;23;20062;-79
2022/01/20 11:50:22;;;;;;;12.57;6.93;;;;;;;;;;6153004;23;20001;-78
2022/01/20 11:52:50;;;;;;;15.05;8.38;;;;;;;;;;6152714;23;20512;-79
2022/01/20 11:55:19;;;;;;;14.65;8.68;;;;;;;;;;6153256;23;20013;-79
2022/01/20 11:57:46;;;;;;;15.05;8.60;;;;;;;;;;6153102;23;20025;-79
2022/01/20 12:00:29;;;;;;;16.30;8.77;;;;;;;;;;6152548;23;20461;-78
2022/01/20 12:02:55;;;;;;;13.85;7.40;;;;;;;;;;6153930;23;20006;-78
2022/01/20 12:05:27;;;;;;;10.45;7.50;;;;;;;;;;6153497;23;20001;-79
2022/01/20 12:08:14;;;;;;;15.43;7.85;;;;;;;;;;6153792;23;20012;-78
2022/01/20 12:10:43;;;;;;;14.63;10.70;;;;;;;;;;6153385;23;20049;-79
2022/01/20 12:13:17;;;;;;;13.45;7.97;;;;;;;;;;6154327;23;20006;-78
2022/01/20 12:15:48;;;;;;;12.68;7.45;;;;;;;;;;6153286;23;20018;-76
2022/01/20 12:18:15;;;;;;;14.35;8.52;;;;;;;;;;6153524;23;19998;-72
2022/01/20 12:20:44;;;;;;;13.20;7.97;;;;;;;;;;6153357;23;20500;-79
2022/01/20 12:23:10;;;;;;;17.55;9.95;;;;;;;;;;6153408;23;20382;-80
2022/01/20 12:25:37;;;;;;;19.00;9.23;;;;;;;;;;6153594;23;20002;-79
2022/01/20 12:28:07;;;;;;;16.92;8.48;;;;;;;;;;6152739;23;20006;-79
2022/01/20 12:30:34;;;;;;;12.27;7.25;;;;;;;;;;6127127;23;20033;-81
2022/01/20 12:33:00;;;;;;;13.35;9.00;;;;;;;;;;6153807;23;20061;-79
2022/01/20 12:35:45;;;;;;;64.03;36.70;;;;;;;;;;6153214;23;20009;-80
2022/01/20 12:38:30;;;;;;;23.35;14.27;;;;;;;;;;6153813;23;20072;-79
2022/01/20 12:44:05;;;;;;;18.17;9.52;;;;;;;;;;6153333;23;20005;-79
2022/01/20 12:46:33;;;;;;;11.32;6.38;;;;;;;;;;6153201;23;20001;-79
2022/01/20 12:49:08;;;;;;;10.00;6.85;;;;;;;;;;6153743;23;20008;-78
2022/01/20 12:51:39;;;;;;;19.25;7.75;;;;;;;;;;6153075;23;20013;-78
2022/01/20 12:54:27;;;;;;;16.67;8.52;;;;;;;;;;6152954;23;20072;-78
2022/01/20 12:56:57;;;;;;;10.13;5.70;;;;;;;;;;6126346;23;20448;-79
2022/01/20 12:59:27;;;;;;;12.15;7.65;;;;;;;;;;6153268;23;20052;-78
2022/01/20 13:01:57;;;;;;;9.85;5.75;;;;;;;;;;6153482;23;20005;-78
2022/01/20 13:04:24;;;;;;;12.77;6.97;;;;;;;;;;6153438;23;20001;-79
2022/01/20 13:06:54;;;;;;;19.30;11.38;;;;;;;;;;6152596;23;20013;-79
2022/01/20 13:09:24;;;;;;;13.23;7.10;;;;;;;;;;6153357;23;20001;-78
2022/01/20 13:11:59;;;;;;;12.43;5.97;;;;;;;;;;6153053;23;20013;-78
2022/01/20 13:14:44;;;;;;;12.02;7.25;;;;;;;;;;6127051;23;20017;-79
2022/01/20 13:17:14;;;;;;;45.90;24.10;;;;;;;;;;6128411;23;20017;-78
2022/01/20 13:19:48;;;;;;;47.40;23.83;;;;;;;;;;6149781;23;20013;-78
2022/01/20 13:22:30;;;;;;;17.77;9.63;;;;;;;;;;6152146;23;20784;-78
2022/01/20 13:25:13;;;;;;;13.23;7.68;;;;;;;;;;6152905;23;20005;-78
2022/01/20 13:27:50;;;;;;;10.13;6.05;;;;;;;;;;6153602;23;20004;-78
2022/01/20 13:30:40;;;;;;;9.68;4.82;;;;;;;;;;6154587;23;20004;-79
2022/01/20 13:33:07;;;;;;;8.57;5.97;;;;;;;;;;6127647;23;20021;-79
2022/01/20 13:35:52;;;;;;;11.48;6.85;;;;;;;;;;6128182;23;20398;-80
2022/01/20 13:38:18;;;;;;;11.15;6.38;;;;;;;;;;6154708;23;20005;-79
2022/01/20 13:40:46;;;;;;;12.00;6.25;;;;;;;;;;6154220;23;20030;-78
2022/01/20 13:45:59;;;;;;;10.88;4.72;;;;;;;;;;6153310;23;20144;-80
2022/01/20 13:48:27;;;;;;;8.30;4.03;;;;;;;;;;6153854;23;19997;-79
2022/01/20 13:50:57;;;;;;;9.43;6.03;;;;;;;;;;6153890;23;20010;-80
2022/01/20 13:53:27;;;;;;;10.30;5.43;;;;;;;;;;6154532;23;20076;-79
2022/01/20 13:55:56;;;;;;;7.78;3.97;;;;;;;;;;6154142;23;20041;-78
2022/01/20 13:58:22;;;;;;;7.47;3.65;;;;;;;;;;6154081;23;20008;-77
2022/01/20 14:00:49;;;;;;;9.48;5.07;;;;;;;;;;6154514;23;20093;-75
2022/01/20 14:03:15;;;;;;;7.20;4.18;;;;;;;;;;6153044;23;20005;-75
2022/01/20 14:05:41;;;;;;;7.30;4.15;;;;;;;;;;6152765;23;20006;-78
2022/01/20 14:08:18;;;;;;;13.77;8.30;;;;;;;;;;6152436;23;20021;-79
2022/01/20 14:10:44;;;;;;;15.60;8.85;;;;;;;;;;6152374;23;20053;-78
2022/01/20 14:13:11;;;;;;;7.32;4.65;;;;;;;;;;6152129;23;20083;-77
2022/01/20 14:15:37;;;;;;;9.25;5.10;;;;;;;;;;6153389;23;20096;-76
2022/01/20 14:18:06;;;;;;;9.93;5.72;;;;;;;;;;6154640;23;20029;-75
2022/01/20 14:20:34;;;;;;;11.98;7.80;;;;;;;;;;6155481;23;20001;-75
2022/01/20 14:23:02;;;;;;;16.52;6.78;;;;;;;;;;6155990;23;20088;-75
2022/01/20 14:25:28;;;;;;;8.85;5.47;;;;;;;;;;6156665;23;20401;-75
2022/01/20 14:27:55;;;;;;;10.82;5.78;;;;;;;;;;6155385;23;20005;-75
2022/01/20 14:30:22;;;;;;;21.77;14.35;;;;;;;;;;6155450;23;20001;-74
2022/01/20 14:32:49;;;;;;;25.33;15.73;;;;;;;;;;6156223;23;20041;-75
2022/01/20 14:35:18;;;;;;;24.27;13.63;;;;;;;;;;6155837;23;20014;-75
2022/01/20 14:37:44;;;;;;;31.42;18.85;;;;;;;;;;6156776;23;20334;-75
2022/01/20 14:40:11;;;;;;;28.33;15.70;;;;;;;;;;6155822;23;20049;-75
2022/01/20 14:42:38;;;;;;;18.83;10.85;;;;;;;;;;6156293;23;20017;-77
2022/01/20 14:45:05;;;;;;;12.90;8.48;;;;;;;;;;6156342;23;20025;-78
2022/01/20 14:47:31;;;;;;;15.18;7.35;;;;;;;;;;6156151;23;20012;-77
2022/01/20 14:49:59;;;;;;;10.18;6.38;;;;;;;;;;6156222;23;20333;-77
2022/01/20 14:52:27;;;;;;;11.07;6.10;;;;;;;;;;6156264;23;20421;-78
2022/01/20 14:54:53;;;;;;;10.68;7.43;;;;;;;;;;6156456;23;20337;-77
2022/01/20 14:57:20;;;;;;;8.07;5.55;;;;;;;;;;6156399;23;20275;-77
2022/01/20 14:59:48;;;;;;;8.40;5.03;;;;;;;;;;6156204;23;20009;-77
2022/01/20 15:02:15;;;;;;;9.35;5.30;;;;;;;;;;6155997;23;20009;-76
2022/01/20 15:04:44;;;;;;;12.75;6.88;;;;;;;;;;6156159;23;19998;-77
2022/01/20 15:07:13;;;;;;;24.40;15.23;;;;;;;;;;6156156;23;20006;-77
2022/01/20 15:09:39;;;;;;;27.45;15.27;;;;;;;;;;6155981;23;20001;-77
2022/01/20 15:12:08;;;;;;;24.95;16.85;;;;;;;;;;6155885;23;20101;-76
2022/01/20 15:14:34;;;;;;;22.80;14.30;;;;;;;;;;6155780;23;20001;-77
2022/01/20 15:17:00;;;;;;;17.30;11.02;;;;;;;;;;6155910;23;20468;-77
2022/01/20 15:19:26;;;;;;;15.50;8.52;;;;;;;;;;6155825;23;20418;-76
2022/01/20 15:21:52;;;;;;;11.32;7.68;;;;;;;;;;6155968;23;20425;-77
2022/01/20 15:24:19;;;;;;;16.45;9.13;;;;;;;;;;6155733;23;19997;-76
2022/01/20 15:26:45;;;;;;;11.05;7.50;;;;;;;;;;6155947;23;20430;-77
2022/01/20 15:29:14;;;;;;;14.23;7.68;;;;;;;;;;6156069;23;20487;-77
2022/01/20 15:31:41;;;;;;;16.23;8.70;;;;;;;;;;6155332;23;20080;-77
2022/01/20 15:34:14;;;;;;;18.95;13.43;;;;;;;;;;6155985;23;20080;-77
2022/01/20 15:36:41;;;;;;;17.85;9.75;;;;;;;;;;6155770;23;20045;-76
2022/01/20 15:39:11;;;;;;;14.90;10.18;;;;;;;;;;6155748;23;19997;-77
2022/01/20 15:41:38;;;;;;;21.60;13.95;;;;;;;;;;6181198;23;20016;-74
2022/01/20 15:44:04;;;;;;;21.52;11.70;;;;;;;;;;6185412;23;20004;-74
2022/01/20 15:46:31;;;;;;;28.95;17.90;;;;;;;;;;6185144;23;20024;-75
2022/01/20 15:48:57;;;;;;;40.13;23.90;;;;;;;;;;6185611;23;20004;-74
2022/01/20 15:51:23;;;;;;;19.92;12.77;;;;;;;;;;6184503;23;20008;-74
2022/01/20 15:53:49;;;;;;;16.60;11.98;;;;;;;;;;6184748;23;20311;-74
2022/01/20 15:56:34;;;;;;;16.20;10.45;;;;;;;;;;6184734;23;20072;-74
2022/01/20 15:59:03;;;;;;;13.68;9.48;;;;;;;;;;6185012;23;20005;-75
2022/01/20 16:01:31;;;;;;;16.88;9.38;;;;;;;;;;6184670;23;20005;-75
2022/01/20 16:03:57;;;;;;;15.05;8.73;;;;;;;;;;6184800;23;20077;-74
2022/01/20 16:06:23;;;;;;;23.45;10.98;;;;;;;;;;6184453;23;19997;-74
2022/01/20 16:08:51;;;;;;;20.52;12.52;;;;;;;;;;6184932;23;19997;-76
2022/01/20 16:11:18;;;;;;;23.55;14.38;;;;;;;;;;6184485;23;20033;-77
2022/01/20 16:13:44;;;;;;;38.28;21.02;;;;;;;;;;6184972;23;20417;-77
2022/01/20 16:16:13;;;;;;;34.78;19.05;;;;;;;;;;6184448;23;20088;-77
2022/01/20 16:18:40;;;;;;;86.90;50.20;;;;;;;;;;6182013;23;20005;-76
2022/01/20 16:21:08;;;;;;;162.68;87.85;;;;;;;;;;6185083;23;20052;-77